createdAt,value
2018-12-09T00:02:26.934Z,19.50
2018-12-09T00:12:42.232Z,15.57
2018-12-09T00:22:57.676Z,18.20
2018-12-09T00:33:13.190Z,19.77
2018-12-09T00:43:29.280Z,21.37
2018-12-09T00:53:44.020Z,15.83
2018-12-09T01:03:59.409Z,21.50
2018-12-09T01:14:14.760Z,19.20
2018-12-09T01:24:30.177Z,20.93
2018-12-09T01:34:45.672Z,20.65
2018-12-09T01:45:01.065Z,16.07
2018-12-09T01:55:18.018Z,14.90
2018-12-09T02:05:33.012Z,13.53
2018-12-09T02:15:48.168Z,12.40
2018-12-09T02:26:03.666Z,12.07
2018-12-09T02:36:20.431Z,19.07
2018-12-09T02:46:36.573Z,18.00
2018-12-09T02:56:51.786Z,14.90
2018-12-09T03:07:07.258Z,15.53
2018-12-09T03:17:22.691Z,11.50
2018-12-09T03:27:37.991Z,10.07
2018-12-09T03:37:53.685Z,9.23
2018-12-09T03:48:09.181Z,9.08
2018-12-09T03:58:24.646Z,6.77
2018-12-09T04:08:40.078Z,5.57
2018-12-09T04:18:55.715Z,3.33
2018-12-09T04:29:11.011Z,6.27
2018-12-09T04:39:26.710Z,4.53
2018-12-09T04:49:42.165Z,6.90
2018-12-09T05:00:03.142Z,8.70
2018-12-09T05:10:18.051Z,5.90
2018-12-09T05:20:35.517Z,7.50
2018-12-09T05:30:51.051Z,5.90
2018-12-09T05:41:05.793Z,7.73
2018-12-09T05:51:21.937Z,8.63
2018-12-09T06:01:37.549Z,8.70
2018-12-09T06:11:52.954Z,7.83
2018-12-09T06:22:08.485Z,13.33
2018-12-09T06:32:24.004Z,15.57
2018-12-09T06:42:39.697Z,18.70
2018-12-09T06:52:55.305Z,14.57
2018-12-09T07:03:10.501Z,16.60
2018-12-09T07:13:25.520Z,17.87
2018-12-09T07:23:40.808Z,12.33
2018-12-09T07:33:56.177Z,15.83
2018-12-09T07:44:11.634Z,12.03
2018-12-09T07:54:27.438Z,12.77
2018-12-09T08:04:42.914Z,12.57
2018-12-09T08:14:58.154Z,12.67
2018-12-09T08:25:13.586Z,11.47
2018-12-09T08:35:29.498Z,12.93
2018-12-09T08:45:44.390Z,15.00
2018-12-09T08:55:59.798Z,11.50
2018-12-09T09:06:15.026Z,11.60
2018-12-09T09:16:30.492Z,11.13
2018-12-09T09:26:46.027Z,12.47
2018-12-09T09:37:01.498Z,15.03
2018-12-09T09:47:17.829Z,15.43
2018-12-09T09:57:33.471Z,19.13
2018-12-09T10:07:48.925Z,17.87
2018-12-09T10:18:04.312Z,16.20
2018-12-09T10:28:19.781Z,24.00
2018-12-09T10:38:35.589Z,21.13
2018-12-09T10:48:50.597Z,16.85
2018-12-09T10:59:06.790Z,12.77
2018-12-09T11:09:22.312Z,13.33
2018-12-09T11:19:37.740Z,21.83
2018-12-09T11:29:53.477Z,13.20
2018-12-09T11:40:08.862Z,5.47
2018-12-09T11:50:23.782Z,7.43
2018-12-09T12:00:40.322Z,4.53
2018-12-09T12:10:55.891Z,4.33
2018-12-09T12:21:11.163Z,4.47
2018-12-09T12:31:26.905Z,3.87
2018-12-09T12:41:43.259Z,5.50
2018-12-09T12:51:59.218Z,11.23
2018-12-09T13:02:14.429Z,8.10
2018-12-09T13:12:29.914Z,5.70
2018-12-09T13:22:45.504Z,8.23
2018-12-09T13:33:01.123Z,9.20
2018-12-09T13:43:16.449Z,5.50
2018-12-09T13:53:32.067Z,4.80
2018-12-09T14:03:47.847Z,10.33
2018-12-09T14:14:03.575Z,10.63
2018-12-09T14:24:18.984Z,9.13
2018-12-09T14:34:34.615Z,9.27
2018-12-09T14:44:49.985Z,10.07
2018-12-09T14:55:05.707Z,5.50
2018-12-09T15:05:20.521Z,9.60
2018-12-09T15:15:35.348Z,11.20
2018-12-09T15:25:50.490Z,6.53
2018-12-09T15:36:05.468Z,8.70
2018-12-09T15:46:20.980Z,11.07
2018-12-09T15:56:39.788Z,8.57
2018-12-09T16:06:54.677Z,11.17
2018-12-09T16:17:10.360Z,14.00
2018-12-09T16:27:25.454Z,9.70
2018-12-09T16:37:41.155Z,13.67
2018-12-09T16:47:56.979Z,10.80
2018-12-09T16:58:12.593Z,14.23
2018-12-09T17:08:28.169Z,20.53
2018-12-09T17:18:43.626Z,15.77
2018-12-09T17:29:05.348Z,8.63
2018-12-09T17:49:39.162Z,8.50
2018-12-09T17:59:54.714Z,11.73
2018-12-09T18:10:10.486Z,7.90
2018-12-09T18:20:25.536Z,7.90
2018-12-09T18:30:41.719Z,11.47
2018-12-09T18:40:56.450Z,14.13
2018-12-09T18:51:11.873Z,9.20
2018-12-09T19:01:26.803Z,11.43
2018-12-09T19:11:42.630Z,10.55
2018-12-09T19:21:58.019Z,8.53
2018-12-09T19:32:13.578Z,10.10
2018-12-09T19:42:29.289Z,11.87
2018-12-09T19:52:45.010Z,15.80
2018-12-09T20:03:00.556Z,9.47
2018-12-09T20:13:16.825Z,10.33
2018-12-09T20:23:32.680Z,13.63
2018-12-09T20:33:48.154Z,18.90
2018-12-09T20:44:04.104Z,11.93
2018-12-09T20:54:18.968Z,15.33
2018-12-09T21:04:34.586Z,13.28
2018-12-09T21:14:50.785Z,13.87
2018-12-09T21:25:06.563Z,12.88
2018-12-09T21:35:21.622Z,12.40
2018-12-09T21:45:38.364Z,13.70
2018-12-09T21:55:53.241Z,12.13
2018-12-09T22:06:08.640Z,15.30
2018-12-09T22:16:24.226Z,11.87
2018-12-09T22:26:39.637Z,11.10
2018-12-09T22:36:54.853Z,12.30
2018-12-09T22:47:10.136Z,12.35
2018-12-09T22:57:25.576Z,9.53
2018-12-09T23:07:46.499Z,10.90
2018-12-09T23:18:02.340Z,12.40
2018-12-09T23:28:19.676Z,11.80
2018-12-09T23:38:35.275Z,7.67
2018-12-09T23:48:51.870Z,11.50
2018-12-09T23:59:07.050Z,11.03
